sensor_id;sensor_type;location;lat;lon;timestamp;P1;durP1;ratioP1;P2;durP2;ratioP2
11699;SDS011;5906;51.660;6.674;2023-05-20T00:01:30;8.50;;;4.10;;
11699;SDS011;5906;51.660;6.674;2023-05-20T00:04:05;6.30;;;3.87;;
11699;SDS011;5906;51.660;6.674;2023-05-20T00:06:33;6.00;;;4.00;;
11699;SDS011;5906;51.660;6.674;2023-05-20T00:09:00;11.00;;;3.97;;
11699;SDS011;5906;51.660;6.674;2023-05-20T00:11:27;4.23;;;3.80;;
11699;SDS011;5906;51.660;6.674;2023-05-20T00:13:54;5.40;;;3.57;;
11699;SDS011;5906;51.660;6.674;2023-05-20T00:16:21;3.93;;;3.47;;
11699;SDS011;5906;51.660;6.674;2023-05-20T00:18:48;11.97;;;3.80;;
11699;SDS011;5906;51.660;6.674;2023-05-20T00:21:15;6.93;;;4.00;;
11699;SDS011;5906;51.660;6.674;2023-05-20T00:23:42;7.43;;;3.60;;
11699;SDS011;5906;51.660;6.674;2023-05-20T00:26:09;6.20;;;3.30;;
11699;SDS011;5906;51.660;6.674;2023-05-20T00:28:36;10.93;;;3.80;;
11699;SDS011;5906;51.660;6.674;2023-05-20T00:31:03;5.30;;;3.27;;
11699;SDS011;5906;51.660;6.674;2023-05-20T00:33:30;5.97;;;4.00;;
11699;SDS011;5906;51.660;6.674;2023-05-20T00:35:58;17.60;;;4.47;;
11699;SDS011;5906;51.660;6.674;2023-05-20T00:38:25;5.70;;;3.10;;
11699;SDS011;5906;51.660;6.674;2023-05-20T00:40:52;5.00;;;3.77;;
11699;SDS011;5906;51.660;6.674;2023-05-20T00:43:19;4.90;;;4.00;;
11699;SDS011;5906;51.660;6.674;2023-05-20T00:45:48;5.70;;;4.10;;
11699;SDS011;5906;51.660;6.674;2023-05-20T00:48:16;5.63;;;3.77;;
11699;SDS011;5906;51.660;6.674;2023-05-20T00:50:43;5.10;;;3.70;;
11699;SDS011;5906;51.660;6.674;2023-05-20T00:53:11;5.07;;;3.40;;
11699;SDS011;5906;51.660;6.674;2023-05-20T00:55:38;5.17;;;3.80;;
11699;SDS011;5906;51.660;6.674;2023-05-20T00:58:05;15.40;;;4.20;;
11699;SDS011;5906;51.660;6.674;2023-05-20T01:00:33;4.77;;;4.03;;
11699;SDS011;5906;51.660;6.674;2023-05-20T01:03:00;10.00;;;4.33;;
11699;SDS011;5906;51.660;6.674;2023-05-20T01:05:27;8.33;;;4.27;;
11699;SDS011;5906;51.660;6.674;2023-05-20T01:07:54;7.23;;;4.07;;
11699;SDS011;5906;51.660;6.674;2023-05-20T01:10:22;5.63;;;3.47;;
11699;SDS011;5906;51.660;6.674;2023-05-20T01:12:53;7.20;;;4.50;;
11699;SDS011;5906;51.660;6.674;2023-05-20T01:15:24;10.60;;;4.13;;
11699;SDS011;5906;51.660;6.674;2023-05-20T01:17:55;6.50;;;4.47;;
11699;SDS011;5906;51.660;6.674;2023-05-20T01:20:27;5.27;;;3.97;;
11699;SDS011;5906;51.660;6.674;2023-05-20T01:22:58;5.50;;;4.00;;
11699;SDS011;5906;51.660;6.674;2023-05-20T01:25:25;7.77;;;4.60;;
11699;SDS011;5906;51.660;6.674;2023-05-20T01:27:53;4.73;;;3.93;;
11699;SDS011;5906;51.660;6.674;2023-05-20T01:30:25;4.20;;;3.80;;
11699;SDS011;5906;51.660;6.674;2023-05-20T01:33:00;6.80;;;4.10;;
11699;SDS011;5906;51.660;6.674;2023-05-20T01:35:31;5.07;;;4.37;;
11699;SDS011;5906;51.660;6.674;2023-05-20T01:37:58;7.40;;;4.57;;
11699;SDS011;5906;51.660;6.674;2023-05-20T01:40:26;7.90;;;4.97;;
11699;SDS011;5906;51.660;6.674;2023-05-20T01:42:54;6.80;;;4.97;;
11699;SDS011;5906;51.660;6.674;2023-05-20T01:45:23;4.57;;;4.10;;
11699;SDS011;5906;51.660;6.674;2023-05-20T01:47:51;10.80;;;4.93;;
11699;SDS011;5906;51.660;6.674;2023-05-20T01:50:18;15.90;;;4.10;;
11699;SDS011;5906;51.660;6.674;2023-05-20T01:52:45;5.90;;;4.40;;
11699;SDS011;5906;51.660;6.674;2023-05-20T01:55:12;6.33;;;3.87;;
11699;SDS011;5906;51.660;6.674;2023-05-20T01:57:39;9.40;;;5.10;;
11699;SDS011;5906;51.660;6.674;2023-05-20T02:00:06;6.63;;;4.67;;
11699;SDS011;5906;51.660;6.674;2023-05-20T02:02:35;9.23;;;5.30;;
11699;SDS011;5906;51.660;6.674;2023-05-20T02:05:02;5.67;;;4.37;;
11699;SDS011;5906;51.660;6.674;2023-05-20T02:07:30;8.57;;;4.60;;
11699;SDS011;5906;51.660;6.674;2023-05-20T02:09:57;10.70;;;5.23;;
11699;SDS011;5906;51.660;6.674;2023-05-20T02:12:24;11.40;;;5.40;;
11699;SDS011;5906;51.660;6.674;2023-05-20T02:14:51;6.63;;;4.43;;
11699;SDS011;5906;51.660;6.674;2023-05-20T02:17:19;8.63;;;5.00;;
11699;SDS011;5906;51.660;6.674;2023-05-20T02:19:46;6.73;;;4.50;;
11699;SDS011;5906;51.660;6.674;2023-05-20T02:22:13;8.33;;;4.40;;
11699;SDS011;5906;51.660;6.674;2023-05-20T02:24:40;9.30;;;4.57;;
11699;SDS011;5906;51.660;6.674;2023-05-20T02:27:09;9.80;;;5.47;;
11699;SDS011;5906;51.660;6.674;2023-05-20T02:29:36;7.73;;;4.63;;
11699;SDS011;5906;51.660;6.674;2023-05-20T02:32:03;7.83;;;5.53;;
11699;SDS011;5906;51.660;6.674;2023-05-20T02:34:31;9.13;;;4.90;;
11699;SDS011;5906;51.660;6.674;2023-05-20T02:36:58;9.97;;;5.40;;
11699;SDS011;5906;51.660;6.674;2023-05-20T02:39:25;11.83;;;4.97;;
11699;SDS011;5906;51.660;6.674;2023-05-20T02:41:53;7.80;;;4.90;;
11699;SDS011;5906;51.660;6.674;2023-05-20T02:44:21;11.20;;;4.80;;
11699;SDS011;5906;51.660;6.674;2023-05-20T02:46:48;9.10;;;5.30;;
11699;SDS011;5906;51.660;6.674;2023-05-20T02:49:15;12.90;;;5.27;;
11699;SDS011;5906;51.660;6.674;2023-05-20T02:51:42;8.07;;;5.67;;
11699;SDS011;5906;51.660;6.674;2023-05-20T02:54:08;9.40;;;5.47;;
11699;SDS011;5906;51.660;6.674;2023-05-20T02:56:36;10.67;;;4.70;;
11699;SDS011;5906;51.660;6.674;2023-05-20T02:59:02;6.70;;;5.20;;
11699;SDS011;5906;51.660;6.674;2023-05-20T03:01:31;6.57;;;4.67;;
11699;SDS011;5906;51.660;6.674;2023-05-20T03:04:03;7.23;;;4.73;;
11699;SDS011;5906;51.660;6.674;2023-05-20T03:06:31;11.00;;;5.07;;
11699;SDS011;5906;51.660;6.674;2023-05-20T03:08:58;6.33;;;4.33;;
11699;SDS011;5906;51.660;6.674;2023-05-20T03:11:25;6.27;;;5.00;;
11699;SDS011;5906;51.660;6.674;2023-05-20T03:13:52;6.17;;;4.73;;
11699;SDS011;5906;51.660;6.674;2023-05-20T03:16:18;5.77;;;4.90;;
11699;SDS011;5906;51.660;6.674;2023-05-20T03:18:45;11.93;;;4.97;;
11699;SDS011;5906;51.660;6.674;2023-05-20T03:21:12;10.93;;;4.60;;
11699;SDS011;5906;51.660;6.674;2023-05-20T03:23:39;8.97;;;5.87;;
11699;SDS011;5906;51.660;6.674;2023-05-20T03:26:06;8.00;;;5.70;;
11699;SDS011;5906;51.660;6.674;2023-05-20T03:28:34;9.97;;;5.30;;
11699;SDS011;5906;51.660;6.674;2023-05-20T03:31:01;9.13;;;5.43;;
11699;SDS011;5906;51.660;6.674;2023-05-20T03:33:29;10.23;;;5.00;;
11699;SDS011;5906;51.660;6.674;2023-05-20T03:35:58;7.70;;;4.73;;
11699;SDS011;5906;51.660;6.674;2023-05-20T03:38:26;12.13;;;5.17;;
11699;SDS011;5906;51.660;6.674;2023-05-20T03:40:53;10.27;;;5.23;;
11699;SDS011;5906;51.660;6.674;2023-05-20T03:43:20;5.30;;;4.80;;
11699;SDS011;5906;51.660;6.674;2023-05-20T03:45:47;8.40;;;5.23;;
11699;SDS011;5906;51.660;6.674;2023-05-20T03:48:14;11.00;;;5.23;;
11699;SDS011;5906;51.660;6.674;2023-05-20T03:50:41;6.90;;;5.20;;
11699;SDS011;5906;51.660;6.674;2023-05-20T03:53:08;5.77;;;4.63;;
11699;SDS011;5906;51.660;6.674;2023-05-20T03:55:35;8.20;;;4.70;;
11699;SDS011;5906;51.660;6.674;2023-05-20T03:58:02;8.00;;;5.07;;
11699;SDS011;5906;51.660;6.674;2023-05-20T04:00:29;6.47;;;5.10;;
11699;SDS011;5906;51.660;6.674;2023-05-20T04:02:57;5.90;;;4.67;;
11699;SDS011;5906;51.660;6.674;2023-05-20T04:05:25;7.73;;;4.80;;
11699;SDS011;5906;51.660;6.674;2023-05-20T04:07:52;9.40;;;6.00;;
11699;SDS011;5906;51.660;6.674;2023-05-20T04:10:19;7.63;;;5.20;;
11699;SDS011;5906;51.660;6.674;2023-05-20T04:12:47;10.03;;;6.03;;
11699;SDS011;5906;51.660;6.674;2023-05-20T04:15:14;8.70;;;5.80;;
11699;SDS011;5906;51.660;6.674;2023-05-20T04:17:42;7.47;;;5.57;;
11699;SDS011;5906;51.660;6.674;2023-05-20T04:20:13;6.90;;;5.10;;
11699;SDS011;5906;51.660;6.674;2023-05-20T04:22:40;9.20;;;5.40;;
11699;SDS011;5906;51.660;6.674;2023-05-20T04:25:08;6.20;;;5.40;;
11699;SDS011;5906;51.660;6.674;2023-05-20T04:27:35;7.97;;;5.17;;
11699;SDS011;5906;51.660;6.674;2023-05-20T04:30:05;9.93;;;5.47;;
11699;SDS011;5906;51.660;6.674;2023-05-20T04:32:33;5.77;;;5.07;;
11699;SDS011;5906;51.660;6.674;2023-05-20T04:35:00;8.07;;;5.10;;
11699;SDS011;5906;51.660;6.674;2023-05-20T04:37:27;6.83;;;5.30;;
11699;SDS011;5906;51.660;6.674;2023-05-20T04:39:54;6.83;;;5.03;;
11699;SDS011;5906;51.660;6.674;2023-05-20T04:42:21;7.40;;;4.90;;
11699;SDS011;5906;51.660;6.674;2023-05-20T04:44:48;9.83;;;5.87;;
11699;SDS011;5906;51.660;6.674;2023-05-20T04:47:15;11.37;;;5.73;;
11699;SDS011;5906;51.660;6.674;2023-05-20T04:49:42;7.80;;;5.23;;
11699;SDS011;5906;51.660;6.674;2023-05-20T04:52:11;8.40;;;5.23;;
11699;SDS011;5906;51.660;6.674;2023-05-20T04:54:37;8.80;;;6.20;;
11699;SDS011;5906;51.660;6.674;2023-05-20T04:57:05;7.20;;;5.10;;
11699;SDS011;5906;51.660;6.674;2023-05-20T04:59:32;13.03;;;4.90;;
11699;SDS011;5906;51.660;6.674;2023-05-20T05:01:59;6.80;;;4.93;;
11699;SDS011;5906;51.660;6.674;2023-05-20T05:04:27;8.10;;;5.17;;
11699;SDS011;5906;51.660;6.674;2023-05-20T05:06:54;11.00;;;4.90;;
11699;SDS011;5906;51.660;6.674;2023-05-20T05:09:21;7.47;;;5.23;;
11699;SDS011;5906;51.660;6.674;2023-05-20T05:11:48;5.23;;;4.60;;
11699;SDS011;5906;51.660;6.674;2023-05-20T05:14:15;8.80;;;5.20;;
11699;SDS011;5906;51.660;6.674;2023-05-20T05:16:42;13.97;;;5.10;;
11699;SDS011;5906;51.660;6.674;2023-05-20T05:19:09;9.77;;;4.87;;
11699;SDS011;5906;51.660;6.674;2023-05-20T05:21:36;8.67;;;5.40;;
11699;SDS011;5906;51.660;6.674;2023-05-20T05:24:03;8.77;;;5.07;;
11699;SDS011;5906;51.660;6.674;2023-05-20T05:26:31;9.27;;;4.93;;
11699;SDS011;5906;51.660;6.674;2023-05-20T05:28:58;8.47;;;4.37;;
11699;SDS011;5906;51.660;6.674;2023-05-20T05:31:25;10.37;;;5.30;;
11699;SDS011;5906;51.660;6.674;2023-05-20T05:33:52;7.97;;;4.70;;
11699;SDS011;5906;51.660;6.674;2023-05-20T05:36:19;6.93;;;4.60;;
11699;SDS011;5906;51.660;6.674;2023-05-20T05:38:46;6.70;;;4.13;;
11699;SDS011;5906;51.660;6.674;2023-05-20T05:41:13;8.07;;;4.33;;
11699;SDS011;5906;51.660;6.674;2023-05-20T05:43:40;6.47;;;4.33;;
11699;SDS011;5906;51.660;6.674;2023-05-20T05:46:07;12.70;;;4.17;;
11699;SDS011;5906;51.660;6.674;2023-05-20T05:48:35;8.87;;;4.13;;
11699;SDS011;5906;51.660;6.674;2023-05-20T05:51:03;6.13;;;4.50;;
11699;SDS011;5906;51.660;6.674;2023-05-20T05:53:30;10.60;;;4.43;;
11699;SDS011;5906;51.660;6.674;2023-05-20T05:55:57;7.20;;;4.60;;
11699;SDS011;5906;51.660;6.674;2023-05-20T05:58:24;6.40;;;4.30;;
11699;SDS011;5906;51.660;6.674;2023-05-20T06:00:51;9.07;;;4.27;;
11699;SDS011;5906;51.660;6.674;2023-05-20T06:03:20;6.17;;;4.40;;
11699;SDS011;5906;51.660;6.674;2023-05-20T06:05:47;7.73;;;4.50;;
11699;SDS011;5906;51.660;6.674;2023-05-20T06:08:14;5.77;;;3.80;;
11699;SDS011;5906;51.660;6.674;2023-05-20T06:10:45;6.90;;;4.50;;
11699;SDS011;5906;51.660;6.674;2023-05-20T06:13:16;4.80;;;4.00;;
11699;SDS011;5906;51.660;6.674;2023-05-20T06:15:44;6.03;;;4.23;;
11699;SDS011;5906;51.660;6.674;2023-05-20T06:18:11;5.83;;;4.53;;
11699;SDS011;5906;51.660;6.674;2023-05-20T06:20:39;5.40;;;3.90;;
11699;SDS011;5906;51.660;6.674;2023-05-20T06:23:06;7.50;;;4.60;;
11699;SDS011;5906;51.660;6.674;2023-05-20T06:25:33;7.53;;;3.70;;
11699;SDS011;5906;51.660;6.674;2023-05-20T06:28:00;5.40;;;4.40;;
11699;SDS011;5906;51.660;6.674;2023-05-20T06:30:28;4.50;;;4.10;;
11699;SDS011;5906;51.660;6.674;2023-05-20T06:32:55;4.80;;;3.83;;
11699;SDS011;5906;51.660;6.674;2023-05-20T06:35:22;5.30;;;4.03;;
11699;SDS011;5906;51.660;6.674;2023-05-20T06:37:49;6.33;;;4.20;;
11699;SDS011;5906;51.660;6.674;2023-05-20T06:40:16;5.90;;;4.27;;
11699;SDS011;5906;51.660;6.674;2023-05-20T06:42:43;6.17;;;4.00;;
11699;SDS011;5906;51.660;6.674;2023-05-20T06:45:10;6.40;;;4.17;;
11699;SDS011;5906;51.660;6.674;2023-05-20T06:47:37;5.30;;;4.13;;
11699;SDS011;5906;51.660;6.674;2023-05-20T06:50:05;5.83;;;4.43;;
11699;SDS011;5906;51.660;6.674;2023-05-20T06:52:32;7.80;;;4.10;;
11699;SDS011;5906;51.660;6.674;2023-05-20T06:54:59;8.87;;;4.43;;
11699;SDS011;5906;51.660;6.674;2023-05-20T06:57:26;6.50;;;3.93;;
11699;SDS011;5906;51.660;6.674;2023-05-20T06:59:54;5.53;;;3.83;;
11699;SDS011;5906;51.660;6.674;2023-05-20T07:02:21;6.80;;;3.50;;
11699;SDS011;5906;51.660;6.674;2023-05-20T07:04:49;7.97;;;4.50;;
11699;SDS011;5906;51.660;6.674;2023-05-20T07:07:16;4.37;;;3.53;;
11699;SDS011;5906;51.660;6.674;2023-05-20T07:09:43;6.00;;;4.03;;
11699;SDS011;5906;51.660;6.674;2023-05-20T07:12:11;9.03;;;4.00;;
11699;SDS011;5906;51.660;6.674;2023-05-20T07:14:38;4.00;;;3.37;;
11699;SDS011;5906;51.660;6.674;2023-05-20T07:17:05;4.67;;;3.77;;
11699;SDS011;5906;51.660;6.674;2023-05-20T07:19:32;12.03;;;3.80;;
11699;SDS011;5906;51.660;6.674;2023-05-20T07:21:59;5.20;;;3.63;;
11699;SDS011;5906;51.660;6.674;2023-05-20T07:24:26;6.47;;;3.97;;
11699;SDS011;5906;51.660;6.674;2023-05-20T07:26:53;4.03;;;3.63;;
11699;SDS011;5906;51.660;6.674;2023-05-20T07:29:21;6.10;;;3.40;;
11699;SDS011;5906;51.660;6.674;2023-05-20T07:31:48;4.93;;;3.70;;
11699;SDS011;5906;51.660;6.674;2023-05-20T07:34:15;5.50;;;3.57;;
11699;SDS011;5906;51.660;6.674;2023-05-20T07:36:42;5.00;;;3.43;;
11699;SDS011;5906;51.660;6.674;2023-05-20T07:39:10;6.80;;;3.73;;
11699;SDS011;5906;51.660;6.674;2023-05-20T07:41:40;7.60;;;4.10;;
11699;SDS011;5906;51.660;6.674;2023-05-20T07:44:08;7.80;;;3.67;;
11699;SDS011;5906;51.660;6.674;2023-05-20T07:46:36;5.73;;;3.50;;
11699;SDS011;5906;51.660;6.674;2023-05-20T07:49:04;5.77;;;3.67;;
11699;SDS011;5906;51.660;6.674;2023-05-20T07:51:31;5.73;;;3.67;;
11699;SDS011;5906;51.660;6.674;2023-05-20T07:53:59;7.10;;;4.10;;
11699;SDS011;5906;51.660;6.674;2023-05-20T07:56:26;3.80;;;3.40;;
11699;SDS011;5906;51.660;6.674;2023-05-20T07:58:54;5.23;;;4.20;;
11699;SDS011;5906;51.660;6.674;2023-05-20T08:01:24;4.43;;;3.77;;
11699;SDS011;5906;51.660;6.674;2023-05-20T08:03:52;6.27;;;4.03;;
11699;SDS011;5906;51.660;6.674;2023-05-20T08:06:20;4.90;;;4.00;;
11699;SDS011;5906;51.660;6.674;2023-05-20T08:08:47;5.73;;;3.80;;
11699;SDS011;5906;51.660;6.674;2023-05-20T08:11:14;12.30;;;4.10;;
11699;SDS011;5906;51.660;6.674;2023-05-20T08:13:41;7.03;;;3.60;;
11699;SDS011;5906;51.660;6.674;2023-05-20T08:16:08;4.27;;;3.57;;
11699;SDS011;5906;51.660;6.674;2023-05-20T08:18:35;8.60;;;3.90;;
11699;SDS011;5906;51.660;6.674;2023-05-20T08:21:04;4.97;;;3.80;;
11699;SDS011;5906;51.660;6.674;2023-05-20T08:23:35;7.53;;;4.13;;
11699;SDS011;5906;51.660;6.674;2023-05-20T08:26:05;5.97;;;3.93;;
11699;SDS011;5906;51.660;6.674;2023-05-20T08:28:33;7.03;;;3.90;;
11699;SDS011;5906;51.660;6.674;2023-05-20T08:31:02;5.70;;;3.97;;
11699;SDS011;5906;51.660;6.674;2023-05-20T08:33:29;6.40;;;3.93;;
11699;SDS011;5906;51.660;6.674;2023-05-20T08:35:57;7.03;;;4.47;;
11699;SDS011;5906;51.660;6.674;2023-05-20T08:38:24;5.43;;;4.33;;
11699;SDS011;5906;51.660;6.674;2023-05-20T08:40:54;5.77;;;4.10;;
11699;SDS011;5906;51.660;6.674;2023-05-20T08:43:23;8.10;;;4.97;;
11699;SDS011;5906;51.660;6.674;2023-05-20T08:45:50;7.40;;;4.87;;
11699;SDS011;5906;51.660;6.674;2023-05-20T08:48:18;6.90;;;4.67;;
11699;SDS011;5906;51.660;6.674;2023-05-20T08:50:51;8.77;;;5.13;;
11699;SDS011;5906;51.660;6.674;2023-05-20T08:53:19;7.03;;;5.03;;
11699;SDS011;5906;51.660;6.674;2023-05-20T08:55:53;6.20;;;4.80;;
11699;SDS011;5906;51.660;6.674;2023-05-20T08:58:26;6.50;;;5.10;;
11699;SDS011;5906;51.660;6.674;2023-05-20T09:00:54;8.47;;;5.40;;
11699;SDS011;5906;51.660;6.674;2023-05-20T09:03:22;6.10;;;4.87;;
11699;SDS011;5906;51.660;6.674;2023-05-20T09:05:51;6.10;;;4.60;;
11699;SDS011;5906;51.660;6.674;2023-05-20T09:08:19;10.80;;;5.27;;
11699;SDS011;5906;51.660;6.674;2023-05-20T09:10:52;7.90;;;4.63;;
11699;SDS011;5906;51.660;6.674;2023-05-20T09:13:19;9.70;;;4.87;;
11699;SDS011;5906;51.660;6.674;2023-05-20T09:15:49;7.53;;;4.80;;
11699;SDS011;5906;51.660;6.674;2023-05-20T09:18:16;14.20;;;4.87;;
11699;SDS011;5906;51.660;6.674;2023-05-20T09:20:45;8.00;;;4.73;;
11699;SDS011;5906;51.660;6.674;2023-05-20T09:23:17;11.43;;;4.60;;
11699;SDS011;5906;51.660;6.674;2023-05-20T09:25:50;7.17;;;4.40;;
11699;SDS011;5906;51.660;6.674;2023-05-20T09:28:18;6.00;;;4.13;;
11699;SDS011;5906;51.660;6.674;2023-05-20T09:30:49;6.43;;;4.50;;
11699;SDS011;5906;51.660;6.674;2023-05-20T09:33:17;5.13;;;4.20;;
11699;SDS011;5906;51.660;6.674;2023-05-20T09:35:44;10.30;;;4.23;;
11699;SDS011;5906;51.660;6.674;2023-05-20T09:38:12;6.90;;;4.83;;
11699;SDS011;5906;51.660;6.674;2023-05-20T09:40:40;11.33;;;4.60;;
11699;SDS011;5906;51.660;6.674;2023-05-20T09:43:09;8.93;;;5.00;;
11699;SDS011;5906;51.660;6.674;2023-05-20T09:45:37;5.70;;;4.60;;
11699;SDS011;5906;51.660;6.674;2023-05-20T09:48:05;6.07;;;4.13;;
11699;SDS011;5906;51.660;6.674;2023-05-20T09:50:34;10.13;;;4.60;;
11699;SDS011;5906;51.660;6.674;2023-05-20T09:53:02;8.70;;;5.17;;
11699;SDS011;5906;51.660;6.674;2023-05-20T09:55:30;11.43;;;4.70;;
11699;SDS011;5906;51.660;6.674;2023-05-20T09:58:02;5.77;;;3.80;;
11699;SDS011;5906;51.660;6.674;2023-05-20T10:00:29;10.33;;;4.73;;
11699;SDS011;5906;51.660;6.674;2023-05-20T10:02:57;6.20;;;4.03;;
11699;SDS011;5906;51.660;6.674;2023-05-20T10:10:49;6.40;;;4.50;;
11699;SDS011;5906;51.660;6.674;2023-05-20T10:24:31;7.77;;;4.10;;
11699;SDS011;5906;51.660;6.674;2023-05-20T10:27:04;5.50;;;4.20;;
11699;SDS011;5906;51.660;6.674;2023-05-20T10:29:41;8.90;;;4.30;;
11699;SDS011;5906;51.660;6.674;2023-05-20T10:34:58;5.57;;;4.10;;
11699;SDS011;5906;51.660;6.674;2023-05-20T10:37:27;7.23;;;3.67;;
11699;SDS011;5906;51.660;6.674;2023-05-20T10:40:05;5.10;;;3.87;;
11699;SDS011;5906;51.660;6.674;2023-05-20T10:42:37;5.07;;;3.43;;
11699;SDS011;5906;51.660;6.674;2023-05-20T10:45:04;5.10;;;3.63;;
11699;SDS011;5906;51.660;6.674;2023-05-20T10:47:33;4.70;;;3.90;;
11699;SDS011;5906;51.660;6.674;2023-05-20T10:50:00;7.83;;;4.27;;
11699;SDS011;5906;51.660;6.674;2023-05-20T10:52:34;6.37;;;4.40;;
11699;SDS011;5906;51.660;6.674;2023-05-20T10:55:02;5.60;;;4.03;;
11699;SDS011;5906;51.660;6.674;2023-05-20T10:57:30;5.93;;;4.43;;
11699;SDS011;5906;51.660;6.674;2023-05-20T10:59:57;10.53;;;4.27;;
11699;SDS011;5906;51.660;6.674;2023-05-20T11:02:26;8.43;;;4.77;;
11699;SDS011;5906;51.660;6.674;2023-05-20T11:04:57;4.67;;;3.70;;
11699;SDS011;5906;51.660;6.674;2023-05-20T11:07:25;7.03;;;4.10;;
11699;SDS011;5906;51.660;6.674;2023-05-20T11:09:55;8.77;;;4.50;;
11699;SDS011;5906;51.660;6.674;2023-05-20T11:12:24;9.33;;;4.37;;
11699;SDS011;5906;51.660;6.674;2023-05-20T11:14:53;5.57;;;4.37;;
11699;SDS011;5906;51.660;6.674;2023-05-20T11:17:20;7.20;;;4.63;;
11699;SDS011;5906;51.660;6.674;2023-05-20T11:19:47;6.97;;;4.30;;
11699;SDS011;5906;51.660;6.674;2023-05-20T11:22:16;5.33;;;4.20;;
11699;SDS011;5906;51.660;6.674;2023-05-20T11:24:43;5.50;;;4.33;;
11699;SDS011;5906;51.660;6.674;2023-05-20T11:27:11;4.70;;;3.93;;
11699;SDS011;5906;51.660;6.674;2023-05-20T11:29:38;8.00;;;4.40;;
11699;SDS011;5906;51.660;6.674;2023-05-20T11:32:06;6.77;;;4.60;;
11699;SDS011;5906;51.660;6.674;2023-05-20T11:34:34;7.27;;;5.17;;
11699;SDS011;5906;51.660;6.674;2023-05-20T11:37:05;9.83;;;4.70;;
11699;SDS011;5906;51.660;6.674;2023-05-20T11:39:34;6.30;;;4.27;;
11699;SDS011;5906;51.660;6.674;2023-05-20T11:42:02;5.03;;;4.30;;
11699;SDS011;5906;51.660;6.674;2023-05-20T11:44:31;6.90;;;4.77;;
11699;SDS011;5906;51.660;6.674;2023-05-20T11:47:04;6.23;;;4.17;;
11699;SDS011;5906;51.660;6.674;2023-05-20T11:49:56;9.23;;;4.90;;
11699;SDS011;5906;51.660;6.674;2023-05-20T11:52:39;6.57;;;4.57;;
11699;SDS011;5906;51.660;6.674;2023-05-20T11:55:22;8.70;;;4.50;;
11699;SDS011;5906;51.660;6.674;2023-05-20T11:58:00;4.10;;;3.53;;
11699;SDS011;5906;51.660;6.674;2023-05-20T12:00:30;7.10;;;4.10;;
11699;SDS011;5906;51.660;6.674;2023-05-20T12:03:22;6.03;;;3.70;;
11699;SDS011;5906;51.660;6.674;2023-05-20T12:06:01;4.70;;;4.20;;
11699;SDS011;5906;51.660;6.674;2023-05-20T12:08:42;4.60;;;3.83;;
11699;SDS011;5906;51.660;6.674;2023-05-20T12:11:10;6.90;;;3.40;;
11699;SDS011;5906;51.660;6.674;2023-05-20T12:14:26;4.57;;;3.50;;
11699;SDS011;5906;51.660;6.674;2023-05-20T12:17:04;3.50;;;3.20;;
11699;SDS011;5906;51.660;6.674;2023-05-20T12:19:55;4.73;;;3.63;;
11699;SDS011;5906;51.660;6.674;2023-05-20T12:22:46;9.83;;;3.73;;
11699;SDS011;5906;51.660;6.674;2023-05-20T12:25:19;6.63;;;3.20;;
11699;SDS011;5906;51.660;6.674;2023-05-20T12:27:52;4.17;;;3.70;;
11699;SDS011;5906;51.660;6.674;2023-05-20T12:30:27;5.70;;;3.40;;
11699;SDS011;5906;51.660;6.674;2023-05-20T12:32:58;7.60;;;3.50;;
11699;SDS011;5906;51.660;6.674;2023-05-20T12:35:39;4.10;;;3.47;;
11699;SDS011;5906;51.660;6.674;2023-05-20T12:38:23;4.77;;;3.83;;
11699;SDS011;5906;51.660;6.674;2023-05-20T12:41:01;4.33;;;3.40;;
11699;SDS011;5906;51.660;6.674;2023-05-20T12:43:39;5.80;;;3.30;;
11699;SDS011;5906;51.660;6.674;2023-05-20T12:46:11;4.30;;;3.20;;
11699;SDS011;5906;51.660;6.674;2023-05-20T12:49:04;4.60;;;3.10;;
11699;SDS011;5906;51.660;6.674;2023-05-20T12:51:37;4.20;;;3.17;;
11699;SDS011;5906;51.660;6.674;2023-05-20T12:54:19;4.20;;;3.00;;
11699;SDS011;5906;51.660;6.674;2023-05-20T12:56:57;6.70;;;3.27;;
11699;SDS011;5906;51.660;6.674;2023-05-20T12:59:29;3.20;;;2.93;;
11699;SDS011;5906;51.660;6.674;2023-05-20T13:02:05;3.90;;;3.10;;
11699;SDS011;5906;51.660;6.674;2023-05-20T13:04:38;3.83;;;3.27;;
11699;SDS011;5906;51.660;6.674;2023-05-20T13:07:10;4.50;;;3.60;;
11699;SDS011;5906;51.660;6.674;2023-05-20T13:09:47;3.70;;;3.03;;
11699;SDS011;5906;51.660;6.674;2023-05-20T13:12:20;5.03;;;3.27;;
11699;SDS011;5906;51.660;6.674;2023-05-20T13:14:57;3.57;;;2.77;;
11699;SDS011;5906;51.660;6.674;2023-05-20T13:17:51;3.50;;;2.87;;
11699;SDS011;5906;51.660;6.674;2023-05-20T13:20:20;5.90;;;3.30;;
11699;SDS011;5906;51.660;6.674;2023-05-20T13:22:59;3.23;;;2.90;;
11699;SDS011;5906;51.660;6.674;2023-05-20T13:25:42;4.23;;;3.00;;
11699;SDS011;5906;51.660;6.674;2023-05-20T13:28:10;5.43;;;2.87;;
11699;SDS011;5906;51.660;6.674;2023-05-20T13:31:00;4.30;;;2.77;;
11699;SDS011;5906;51.660;6.674;2023-05-20T13:33:36;3.53;;;2.87;;
11699;SDS011;5906;51.660;6.674;2023-05-20T13:36:15;4.07;;;2.50;;
11699;SDS011;5906;51.660;6.674;2023-05-20T13:38:57;3.40;;;2.80;;
11699;SDS011;5906;51.660;6.674;2023-05-20T13:41:24;4.73;;;2.73;;
11699;SDS011;5906;51.660;6.674;2023-05-20T13:43:56;3.20;;;2.50;;
11699;SDS011;5906;51.660;6.674;2023-05-20T13:46:23;3.43;;;3.13;;
11699;SDS011;5906;51.660;6.674;2023-05-20T13:48:51;3.90;;;3.07;;
11699;SDS011;5906;51.660;6.674;2023-05-20T13:51:18;6.50;;;3.00;;
11699;SDS011;5906;51.660;6.674;2023-05-20T13:53:45;3.30;;;2.97;;
11699;SDS011;5906;51.660;6.674;2023-05-20T13:56:13;4.83;;;3.00;;
11699;SDS011;5906;51.660;6.674;2023-05-20T13:58:40;7.20;;;3.07;;
11699;SDS011;5906;51.660;6.674;2023-05-20T14:01:07;3.80;;;2.60;;
11699;SDS011;5906;51.660;6.674;2023-05-20T14:03:34;3.30;;;2.60;;
11699;SDS011;5906;51.660;6.674;2023-05-20T14:06:02;3.23;;;2.70;;
11699;SDS011;5906;51.660;6.674;2023-05-20T14:08:29;4.23;;;2.67;;
11699;SDS011;5906;51.660;6.674;2023-05-20T14:10:56;3.00;;;2.63;;
11699;SDS011;5906;51.660;6.674;2023-05-20T14:13:23;3.80;;;3.40;;
11699;SDS011;5906;51.660;6.674;2023-05-20T14:15:51;5.77;;;3.27;;
11699;SDS011;5906;51.660;6.674;2023-05-20T14:18:20;8.67;;;2.77;;
11699;SDS011;5906;51.660;6.674;2023-05-20T14:20:47;2.90;;;2.53;;
11699;SDS011;5906;51.660;6.674;2023-05-20T14:23:14;11.70;;;2.60;;
11699;SDS011;5906;51.660;6.674;2023-05-20T14:25:41;2.80;;;2.40;;
11699;SDS011;5906;51.660;6.674;2023-05-20T14:28:08;3.53;;;2.93;;
11699;SDS011;5906;51.660;6.674;2023-05-20T14:30:36;3.60;;;2.80;;
11699;SDS011;5906;51.660;6.674;2023-05-20T14:33:03;8.00;;;2.97;;
11699;SDS011;5906;51.660;6.674;2023-05-20T14:35:31;6.43;;;3.10;;
11699;SDS011;5906;51.660;6.674;2023-05-20T14:37:58;5.10;;;3.00;;
11699;SDS011;5906;51.660;6.674;2023-05-20T14:40:25;4.20;;;2.90;;
11699;SDS011;5906;51.660;6.674;2023-05-20T14:42:52;5.10;;;3.57;;
11699;SDS011;5906;51.660;6.674;2023-05-20T14:45:19;10.27;;;3.27;;
11699;SDS011;5906;51.660;6.674;2023-05-20T14:47:46;4.50;;;2.80;;
11699;SDS011;5906;51.660;6.674;2023-05-20T14:50:13;4.10;;;2.90;;
11699;SDS011;5906;51.660;6.674;2023-05-20T14:52:40;6.20;;;3.00;;
11699;SDS011;5906;51.660;6.674;2023-05-20T14:55:07;4.10;;;2.87;;
11699;SDS011;5906;51.660;6.674;2023-05-20T14:57:33;2.90;;;2.50;;
11699;SDS011;5906;51.660;6.674;2023-05-20T15:00:00;3.10;;;2.57;;
11699;SDS011;5906;51.660;6.674;2023-05-20T15:02:27;3.60;;;2.67;;
11699;SDS011;5906;51.660;6.674;2023-05-20T15:04:57;4.73;;;2.67;;
11699;SDS011;5906;51.660;6.674;2023-05-20T15:07:24;3.60;;;2.77;;
11699;SDS011;5906;51.660;6.674;2023-05-20T15:09:51;3.30;;;3.00;;
11699;SDS011;5906;51.660;6.674;2023-05-20T15:12:18;3.53;;;3.03;;
11699;SDS011;5906;51.660;6.674;2023-05-20T15:14:45;6.90;;;3.30;;
11699;SDS011;5906;51.660;6.674;2023-05-20T15:17:12;3.60;;;2.70;;
11699;SDS011;5906;51.660;6.674;2023-05-20T15:19:39;2.83;;;2.60;;
11699;SDS011;5906;51.660;6.674;2023-05-20T15:22:07;3.13;;;2.67;;
11699;SDS011;5906;51.660;6.674;2023-05-20T15:24:34;4.87;;;2.43;;
11699;SDS011;5906;51.660;6.674;2023-05-20T15:27:01;3.23;;;2.80;;
11699;SDS011;5906;51.660;6.674;2023-05-20T15:29:32;6.60;;;2.67;;
11699;SDS011;5906;51.660;6.674;2023-05-20T15:32:06;3.30;;;2.87;;